Lincoln, RI

11:16 PM EDT on October 24, 2014 (GMT -0400)
KRINORTH8 | Change Station
CLOSE
Current Station
Personal Weather Station
Location: North Providence, RI
Elevation: 237 ft
Nearby Weather Stations

Elev 237 ft 41.87 °N, 71.45 °W | Updated 3 minutes ago

Overcast
Overcast
49.1 °F
Feels Like 49 °F
N
0.0
Wind Variable Wind from SSW
Gusts 0.0 mph

Today
High -- | Low -- °F
--% Chance of Precip.
Yesterday
High -- | Low -- °F
Precip. -- in
7:08 AM 5:50 PM
New Moon, 2% visible
Pressure 29.74 in
Visibility 10.0 miles
Clouds Overcast 2400 ft
Windchill 49 °F
Dew Point 46 °F
Humidity 91%
Rainfall 0.00 in
Snow Depth Not available.
UV 0 out of 12
Pollen .10 out of 12
Ozone Good
PM2.5 Good
Flu Activity No Activity
METAR KSFZ 250255Z 33007KT 10SM OVC024 09/02 A2974 RMK AO1 54000

More Conditions Fewer Conditions

Pressure 29.74 in
Visibility 10.0 miles
Clouds Overcast 2400 ft
Windchill 49 °F
Dew Point 46 °F
Humidity 91%
Rainfall 0.00 in
Snow Depth Not available.
UV 0 out of 12
Pollen .10 out of 12
Ozone Good
PM2.5 Good
Flu Activity No Activity
METAR KSFZ 250255Z 33007KT 10SM OVC024 09/02 A2974 RMK AO1 54000

More Conditions Fewer Conditions

10-Day Weather Forecast

Almanac

Astronomy

Oct. 24, 2014 Rise Set
Actual Time 7:08 AM EDT 5:50 PM EDT
Civil Twilight 6:40 AM EDT 6:19 PM EDT
Nautical Twilight 6:07 AM EDT 6:51 PM EDT
Astronomical Twilight 5:35 AM EDT 7:23 PM EDT
Moon 7:45 AM EDT (10/24) 6:27 PM EDT (10/24)
Length of Visible Light 11h 39m
Length of Day
10h 42m
Tomorrow will be 2m 36s shorter.
New Moon, 2% of the Moon is Illuminated
Today
New Moon
Oct 30
First Quarter
Nov 6
Full
Nov 14
Last Quarter
Nov 22
New

Today's Extremes

State Highs State Lows

Community

WunderPhotos

Upload Photos

1,764,763 photos uploaded!

Nearby

Air Quality

  Air Quality AQ Index Pollutant
Yesterday Good
OZONE
Current Good
OZONE
Current Good
PM2.5
Friday Good
OZONE
Friday Good
PM2.5
Saturday Good
OZONE
Saturday Good
PM2.5
Sunday Good
OZONE
Sunday Good
PM2.5
Monday Good
OZONE
Monday Good
PM2.5

Snow Depth

Station Depth Elevation
No new snow has been reported.

Earthquake Activity

City Distance Mag. Time & Date
No recent earthquake activity has been reported nearby.
Minimum magnitude displayed is 2.5.

Coastal Water Temperatures

Place Temperature
Newport, RI 60.1 °F
Quonset Point, RI 57.9 °F
Conimicut Light, RI 60.1 °F

Nearby Weather Stations